Time;durP1;ratioP1;P1;durP2;ratioP2;P2;SDS_P1;SDS_P2;PMS_P1;PMS_P2;Temp;Humidity;BMP_temperature;BMP_pressure;BME280_temperature;BME280_humidity;BME280_pressure;Samples;Min_cycle;Max_cycle;Signal;HPM_P1;HPM_P2
2023/08/06 00:02:20;;;;;;;10.63;9.80;;;18.60;1.00;;;;;;5043865;28;20949;-77
2023/08/06 00:04:47;;;;;;;11.27;10.37;;;18.60;1.00;;;;;;5046910;28;20975;-77
2023/08/06 00:07:15;;;;;;;10.27;9.53;;;18.60;1.00;;;;;;5048535;28;20535;-78
2023/08/06 00:09:42;;;;;;;10.77;10.03;;;18.60;1.00;;;;;;5042914;28;21054;-78
2023/08/06 00:12:13;;;;;;;11.10;10.00;;;18.60;1.00;;;;;;5043796;28;20832;-78
2023/08/06 00:14:40;;;;;;;11.03;10.13;;;18.60;1.00;;;;;;5045744;28;20460;-78
2023/08/06 00:17:07;;;;;;;11.33;10.20;;;18.70;1.00;;;;;;5048983;28;20553;-76
2023/08/06 00:19:34;;;;;;;10.50;9.70;;;18.70;1.00;;;;;;5042925;28;20542;-77
2023/08/06 00:22:01;;;;;;;12.77;11.70;;;18.70;1.00;;;;;;5042287;28;20972;-81
2023/08/06 00:24:29;;;;;;;12.00;11.00;;;18.70;1.00;;;;;;5042031;28;21279;-77
2023/08/06 00:26:56;;;;;;;10.87;10.07;;;18.70;1.00;;;;;;5045821;28;20717;-77
2023/08/06 00:29:24;;;;;;;11.10;10.20;;;18.70;1.00;;;;;;5046206;28;20491;-76
2023/08/06 00:31:52;;;;;;;9.93;9.10;;;18.70;1.00;;;;;;5045160;28;20469;-78
2023/08/06 00:34:19;;;;;;;10.60;9.80;;;18.70;1.00;;;;;;5047009;28;20499;-75
2023/08/06 00:36:49;;;;;;;11.27;10.40;;;18.50;1.00;;;;;;5050123;28;20633;-77
2023/08/06 00:39:16;;;;;;;11.10;10.00;;;18.50;1.00;;;;;;5047460;28;20471;-78
2023/08/06 00:41:43;;;;;;;10.57;9.77;;;18.50;1.00;;;;;;5049293;28;20482;-78
2023/08/06 00:44:10;;;;;;;11.43;10.53;;;18.50;1.00;;;;;;5048758;28;21106;-77
2023/08/06 00:46:39;;;;;;;11.50;10.50;;;18.40;1.00;;;;;;5051168;28;20450;-77
2023/08/06 00:49:06;;;;;;;10.80;10.00;;;18.40;1.00;;;;;;5048041;28;21736;-77
2023/08/06 00:51:34;;;;;;;11.33;10.33;;;18.30;1.00;;;;;;5046252;28;20471;-76
2023/08/06 00:54:03;;;;;;;10.80;9.90;;;18.30;1.00;;;;;;5047700;28;20554;-79
2023/08/06 00:56:30;;;;;;;12.20;11.30;;;18.30;1.00;;;;;;5048108;28;20531;-77
2023/08/06 00:58:57;;;;;;;10.47;9.60;;;18.30;1.00;;;;;;5044441;28;20456;-77
2023/08/06 01:01:25;;;;;;;10.80;9.90;;;18.20;1.00;;;;;;5042062;28;21018;-77
2023/08/06 01:03:54;;;;;;;11.47;10.57;;;18.20;1.00;;;;;;5058461;22;20916;-74
2023/08/06 01:06:30;;;;;;;11.40;10.60;;;18.20;1.00;;;;;;5062561;28;20539;-77
2023/08/06 01:09:02;;;;;;;13.03;11.93;;;18.10;1.00;;;;;;5061034;28;20496;-77
2023/08/06 01:11:43;;;;;;;12.20;11.30;;;18.00;1.00;;;;;;5047347;28;20461;-77
2023/08/06 01:14:22;;;;;;;12.40;11.43;;;17.90;1.00;;;;;;5063555;28;20465;-78
2023/08/06 01:16:50;;;;;;;12.40;11.40;;;17.80;1.00;;;;;;5066250;28;20456;-78
2023/08/06 01:19:19;;;;;;;13.10;12.20;;;17.80;1.00;;;;;;5062303;28;20547;-77
2023/08/06 01:21:48;;;;;;;12.90;11.70;;;17.90;1.00;;;;;;5062861;28;20958;-78
2023/08/06 01:24:15;;;;;;;12.63;11.53;;;17.90;1.00;;;;;;5065123;28;20559;-78
2023/08/06 01:26:48;;;;;;;12.07;11.07;;;17.90;1.00;;;;;;5065470;28;20472;-78
2023/08/06 01:29:22;;;;;;;12.50;11.50;;;17.90;1.00;;;;;;5064845;28;20545;-78
2023/08/06 01:31:52;;;;;;;11.73;10.83;;;17.90;1.00;;;;;;5065736;28;20494;-77
2023/08/06 01:34:23;;;;;;;12.43;11.43;;;17.90;1.00;;;;;;5062134;28;25695;-78
2023/08/06 01:36:52;;;;;;;12.50;11.50;;;17.70;1.00;;;;;;5065148;28;23032;-78
2023/08/06 01:39:20;;;;;;;12.83;11.30;;;17.70;1.00;;;;;;5060015;28;20666;-78
2023/08/06 01:41:47;;;;;;;12.10;11.00;;;17.80;1.00;;;;;;5065353;28;20458;-79
2023/08/06 01:44:15;;;;;;;13.27;12.27;;;17.80;1.00;;;;;;5062797;28;20573;-79
2023/08/06 01:46:42;;;;;;;12.73;11.53;;;17.80;1.00;;;;;;5063737;28;20482;-78
2023/08/06 01:49:09;;;;;;;12.47;11.30;;;17.80;1.00;;;;;;5064539;28;21005;-78
2023/08/06 01:51:36;;;;;;;12.57;11.40;;;17.70;1.00;;;;;;5060956;28;20494;-79
2023/08/06 01:54:05;;;;;;;13.77;12.70;;;17.70;1.00;;;;;;5064404;28;20516;-78
2023/08/06 01:56:32;;;;;;;12.50;11.50;;;17.50;1.00;;;;;;5062992;28;20501;-79
2023/08/06 01:58:59;;;;;;;12.80;11.70;;;17.50;1.00;;;;;;5063164;28;20481;-78
2023/08/06 02:01:26;;;;;;;13.17;12.07;;;17.50;1.00;;;;;;5063310;28;20907;-78
2023/08/06 02:03:53;;;;;;;11.63;10.73;;;17.50;1.00;;;;;;5058188;28;20566;-78
2023/08/06 02:06:20;;;;;;;11.93;10.93;;;17.40;1.00;;;;;;5061701;28;20482;-78
2023/08/06 02:08:47;;;;;;;12.27;11.27;;;17.40;1.00;;;;;;5063611;28;20468;-78
2023/08/06 02:11:15;;;;;;;10.20;9.43;;;17.40;1.00;;;;;;5062625;28;22580;-78
2023/08/06 02:13:42;;;;;;;10.97;10.07;;;17.40;1.00;;;;;;5061742;28;20568;-79
2023/08/06 02:16:09;;;;;;;11.50;10.50;;;17.30;1.00;;;;;;5061613;28;20952;-79
2023/08/06 02:18:36;;;;;;;12.33;11.20;;;17.30;1.00;;;;;;5063344;28;20520;-78
2023/08/06 02:21:03;;;;;;;11.53;10.70;;;17.30;1.00;;;;;;5062179;28;20472;-78
2023/08/06 02:23:31;;;;;;;10.73;9.83;;;17.30;1.00;;;;;;5063883;28;20475;-78
2023/08/06 02:25:59;;;;;;;12.00;11.00;;;17.30;1.00;;;;;;5062033;28;21058;-78
2023/08/06 02:28:28;;;;;;;11.60;10.70;;;17.30;1.00;;;;;;5062172;28;20545;-80
2023/08/06 02:30:55;;;;;;;11.50;10.60;;;17.20;1.00;;;;;;5059724;28;20473;-79
2023/08/06 02:33:22;;;;;;;11.33;10.23;;;17.20;1.00;;;;;;5064608;28;20456;-80
2023/08/06 02:35:49;;;;;;;11.40;10.50;;;17.20;1.00;;;;;;5063081;28;20478;-79
2023/08/06 02:38:16;;;;;;;12.00;10.80;;;17.10;1.00;;;;;;5060597;28;20522;-79
2023/08/06 02:40:46;;;;;;;11.27;10.17;;;17.20;1.00;;;;;;5063885;28;20462;-79
2023/08/06 02:43:14;;;;;;;11.33;10.43;;;17.20;1.00;;;;;;5060680;28;20472;-78
2023/08/06 02:45:42;;;;;;;12.40;11.30;;;17.20;1.00;;;;;;5061762;28;20452;-78
2023/08/06 02:48:10;;;;;;;14.70;11.80;;;17.10;1.00;;;;;;5043949;28;21021;-79
2023/08/06 02:50:40;;;;;;;12.50;11.50;;;17.10;1.00;;;;;;5062351;28;21853;-79
2023/08/06 02:53:07;;;;;;;11.90;11.00;;;17.10;1.00;;;;;;5062624;28;20516;-79
2023/08/06 02:55:34;;;;;;;12.07;11.13;;;17.20;1.00;;;;;;5063426;28;20460;-79
2023/08/06 02:58:02;;;;;;;12.00;10.80;;;17.20;1.00;;;;;;5060215;28;20572;-80
2023/08/06 03:00:30;;;;;;;11.97;10.97;;;17.10;1.00;;;;;;5060191;28;20461;-80
2023/08/06 03:02:58;;;;;;;11.63;10.60;;;17.10;1.00;;;;;;5060321;28;20477;-78
2023/08/06 03:05:25;;;;;;;11.80;10.60;;;17.10;1.00;;;;;;5064015;28;20540;-79
2023/08/06 03:07:52;;;;;;;11.70;10.77;;;17.10;1.00;;;;;;5062381;28;21640;-79
2023/08/06 03:10:19;;;;;;;10.53;9.63;;;17.10;1.00;;;;;;5063347;28;20464;-78
2023/08/06 03:12:47;;;;;;;11.90;10.90;;;17.10;1.00;;;;;;5062426;28;20484;-79
2023/08/06 03:15:14;;;;;;;10.97;10.13;;;17.10;1.00;;;;;;5060983;28;20465;-79
2023/08/06 03:17:41;;;;;;;11.83;10.90;;;17.10;1.00;;;;;;5061321;28;20453;-78
2023/08/06 03:20:11;;;;;;;12.60;11.50;;;17.10;1.00;;;;;;5061942;28;20485;-78
2023/08/06 03:22:38;;;;;;;11.80;10.80;;;17.10;1.00;;;;;;5061844;28;20924;-78
2023/08/06 03:25:08;;;;;;;11.70;10.70;;;17.10;1.00;;;;;;5062680;28;20464;-79
2023/08/06 03:27:35;;;;;;;12.97;11.97;;;17.10;1.00;;;;;;5061130;28;20563;-80
2023/08/06 03:30:04;;;;;;;13.53;12.43;;;17.10;1.00;;;;;;5063945;28;20575;-80
2023/08/06 03:32:31;;;;;;;12.43;11.30;;;17.10;1.00;;;;;;5061289;28;20505;-79
2023/08/06 03:34:58;;;;;;;12.10;11.20;;;17.10;1.00;;;;;;5060775;28;20473;-80
2023/08/06 03:37:26;;;;;;;11.67;10.77;;;17.10;1.00;;;;;;5060220;28;20512;-80
2023/08/06 03:39:53;;;;;;;12.27;11.23;;;17.20;1.00;;;;;;5059526;28;20468;-80
2023/08/06 03:42:20;;;;;;;11.30;10.40;;;17.10;1.00;;;;;;5061838;28;20633;-80
2023/08/06 03:44:47;;;;;;;11.53;10.50;;;17.10;1.00;;;;;;5059047;28;20460;-79
2023/08/06 03:47:14;;;;;;;11.50;10.40;;;17.10;1.00;;;;;;5064344;28;20467;-80
2023/08/06 03:49:43;;;;;;;11.37;10.50;;;17.10;1.00;;;;;;5058697;28;20885;-81
2023/08/06 03:52:10;;;;;;;9.47;8.57;;;17.10;1.00;;;;;;5060746;28;20474;-80
2023/08/06 03:54:39;;;;;;;10.20;9.20;;;17.10;1.00;;;;;;5061050;28;20497;-80
2023/08/06 03:57:06;;;;;;;11.33;10.33;;;17.10;1.00;;;;;;5060355;28;20498;-80
2023/08/06 03:59:33;;;;;;;9.50;8.80;;;17.10;1.00;;;;;;5062756;28;20467;-79
2023/08/06 04:02:00;;;;;;;10.10;9.30;;;17.00;1.00;;;;;;5058942;28;20505;-81
2023/08/06 04:04:27;;;;;;;10.27;9.47;;;17.00;1.00;;;;;;5055282;28;20492;-80
2023/08/06 04:06:54;;;;;;;9.37;8.60;;;17.00;1.00;;;;;;5062031;28;20472;-81
2023/08/06 04:09:21;;;;;;;9.93;9.20;;;17.00;1.00;;;;;;5057857;28;20450;-81
2023/08/06 04:11:50;;;;;;;10.17;9.37;;;17.00;1.00;;;;;;5060026;28;21125;-81
2023/08/06 04:14:16;;;;;;;10.67;9.80;;;17.00;1.00;;;;;;5060905;28;20552;-81
2023/08/06 04:16:43;;;;;;;10.50;9.70;;;17.00;1.00;;;;;;5059184;28;20509;-81
2023/08/06 04:19:11;;;;;;;10.43;9.50;;;17.00;1.00;;;;;;5058564;28;20471;-81
2023/08/06 04:21:38;;;;;;;11.30;10.40;;;17.00;1.00;;;;;;5058220;28;20481;-81
2023/08/06 04:24:05;;;;;;;10.70;9.80;;;17.00;1.00;;;;;;5061176;28;20951;-79
2023/08/06 04:26:32;;;;;;;10.43;9.63;;;17.00;1.00;;;;;;5060963;28;20462;-78
2023/08/06 04:29:00;;;;;;;10.30;9.40;;;16.90;1.00;;;;;;5060535;28;20952;-80
2023/08/06 04:31:27;;;;;;;9.00;8.30;;;17.00;1.00;;;;;;5058928;28;20562;-81
2023/08/06 04:33:54;;;;;;;9.70;9.00;;;17.00;1.00;;;;;;5059963;28;21211;-81
2023/08/06 04:36:24;;;;;;;10.40;9.40;;;17.00;1.00;;;;;;5058515;28;20481;-81
2023/08/06 04:38:51;;;;;;;9.87;9.17;;;17.00;1.00;;;;;;5059307;28;20460;-81
2023/08/06 04:41:18;;;;;;;10.47;9.47;;;17.00;1.00;;;;;;5060242;28;20849;-80
2023/08/06 04:43:45;;;;;;;9.77;8.97;;;17.00;1.00;;;;;;5058781;28;20469;-80
2023/08/06 04:46:14;;;;;;;11.10;10.00;;;17.00;1.00;;;;;;5060166;28;20501;-81
2023/08/06 04:48:41;;;;;;;10.30;9.47;;;17.00;1.00;;;;;;5058886;28;20976;-81
2023/08/06 04:51:08;;;;;;;9.83;9.07;;;17.00;1.00;;;;;;5057039;28;20911;-81
2023/08/06 04:53:34;;;;;;;11.03;9.53;;;17.10;1.00;;;;;;5059215;28;20548;-81
2023/08/06 04:56:01;;;;;;;9.90;9.10;;;17.00;1.00;;;;;;5063516;28;20964;-81
2023/08/06 04:58:28;;;;;;;11.97;11.00;;;17.00;1.00;;;;;;5060815;28;20448;-81
2023/08/06 05:00:55;;;;;;;10.93;10.13;;;17.10;1.00;;;;;;5058683;28;20485;-81
2023/08/06 05:03:24;;;;;;;10.33;9.47;;;17.10;1.00;;;;;;5060045;28;20461;-80
2023/08/06 05:05:51;;;;;;;10.87;10.07;;;17.10;1.00;;;;;;5056770;28;20459;-80
2023/08/06 05:08:18;;;;;;;10.73;9.93;;;17.20;1.00;;;;;;5057612;28;21284;-81
2023/08/06 05:10:47;;;;;;;10.13;9.33;;;17.20;1.00;;;;;;5060649;28;20485;-81
2023/08/06 05:13:14;;;;;;;11.13;10.23;;;17.20;1.00;;;;;;5058309;28;20453;-81
2023/08/06 05:15:42;;;;;;;11.47;10.40;;;17.20;1.00;;;;;;5064932;28;20467;-80
2023/08/06 05:18:09;;;;;;;10.50;9.70;;;17.20;1.00;;;;;;5062068;28;20632;-80
2023/08/06 05:20:39;;;;;;;11.40;10.40;;;17.20;1.00;;;;;;5060233;28;20480;-81
2023/08/06 05:23:06;;;;;;;11.67;10.67;;;17.20;1.00;;;;;;5059493;28;20452;-79
2023/08/06 05:25:33;;;;;;;12.10;11.00;;;17.20;1.00;;;;;;5064005;28;20457;-80
2023/08/06 05:28:01;;;;;;;12.13;11.13;;;17.20;1.00;;;;;;5061141;28;20941;-80
2023/08/06 05:30:28;;;;;;;10.60;9.77;;;17.20;1.00;;;;;;5060208;28;20478;-82
2023/08/06 05:32:55;;;;;;;10.90;10.03;;;17.20;1.00;;;;;;5065747;28;20487;-81
2023/08/06 05:35:23;;;;;;;11.63;10.53;;;17.20;1.00;;;;;;5062974;28;20483;-78
2023/08/06 05:37:51;;;;;;;11.97;10.97;;;17.20;1.00;;;;;;5061478;28;20476;-79
2023/08/06 05:40:18;;;;;;;12.30;11.40;;;17.30;1.00;;;;;;5063473;28;20531;-80
2023/08/06 05:42:45;;;;;;;11.30;10.40;;;17.30;1.00;;;;;;5058738;28;20508;-80
2023/08/06 05:45:12;;;;;;;11.97;11.00;;;17.40;1.00;;;;;;5065030;28;20463;-81
2023/08/06 05:47:39;;;;;;;11.77;10.67;;;17.40;1.00;;;;;;5062121;28;20477;-80
2023/08/06 05:50:07;;;;;;;12.10;11.10;;;17.40;1.00;;;;;;5062835;28;20526;-81
2023/08/06 05:52:39;;;;;;;13.03;11.73;;;17.50;1.00;;;;;;5064564;28;20556;-80
2023/08/06 05:55:08;;;;;;;11.57;10.57;;;17.50;1.00;;;;;;5058979;28;20815;-80
2023/08/06 05:57:35;;;;;;;11.50;10.40;;;17.50;1.00;;;;;;5064311;28;21964;-79
2023/08/06 06:00:06;;;;;;;12.53;11.50;;;17.50;1.00;;;;;;5062791;28;20516;-80
2023/08/06 06:02:33;;;;;;;11.07;10.07;;;17.50;1.00;;;;;;5059457;28;20838;-80
2023/08/06 06:04:59;;;;;;;11.33;10.40;;;17.50;1.00;;;;;;5061709;28;20497;-78
2023/08/06 06:07:26;;;;;;;11.70;10.70;;;17.50;1.00;;;;;;5061166;28;20455;-80
2023/08/06 06:09:53;;;;;;;12.00;11.00;;;17.50;1.00;;;;;;5061752;28;20470;-82
2023/08/06 06:12:22;;;;;;;12.43;11.07;;;17.50;1.00;;;;;;5062099;28;20445;-79
2023/08/06 06:14:49;;;;;;;13.47;12.47;;;17.60;1.00;;;;;;5063770;28;20489;-80
2023/08/06 06:17:16;;;;;;;11.13;10.17;;;17.60;1.00;;;;;;5060965;28;20550;-80
2023/08/06 06:19:43;;;;;;;11.80;10.90;;;17.70;1.00;;;;;;5059932;28;20935;-80
2023/08/06 06:22:10;;;;;;;13.03;11.93;;;17.70;1.00;;;;;;5061624;28;20453;-80
2023/08/06 06:24:37;;;;;;;13.20;12.17;;;17.80;1.00;;;;;;5061670;28;20457;-81
2023/08/06 06:27:05;;;;;;;12.53;11.53;;;17.80;1.00;;;;;;5062626;28;20497;-81
2023/08/06 06:29:33;;;;;;;14.30;13.00;;;17.70;1.00;;;;;;5063393;28;20506;-81
2023/08/06 06:32:00;;;;;;;13.43;12.23;;;17.70;1.00;;;;;;5059572;28;20550;-78
2023/08/06 06:34:27;;;;;;;13.00;12.00;;;17.70;1.00;;;;;;5062480;28;20625;-81
2023/08/06 06:36:54;;;;;;;13.50;12.40;;;17.70;1.00;;;;;;5062432;28;20960;-81
2023/08/06 06:39:22;;;;;;;12.60;11.50;;;17.80;1.00;;;;;;5063320;28;20971;-82
2023/08/06 06:41:49;;;;;;;13.23;12.00;;;17.90;1.00;;;;;;5052240;28;20465;-79
2023/08/06 06:44:16;;;;;;;13.13;12.03;;;17.90;1.00;;;;;;5062890;28;21122;-81
2023/08/06 06:46:45;;;;;;;12.97;11.90;;;17.90;1.00;;;;;;5064501;28;20465;-82
2023/08/06 06:49:11;;;;;;;14.60;13.23;;;17.80;1.00;;;;;;5062344;28;20568;-81
2023/08/06 06:51:38;;;;;;;14.00;12.70;;;17.90;1.00;;;;;;5058693;28;21032;-82
2023/08/06 06:54:05;;;;;;;12.23;11.10;;;17.90;1.00;;;;;;5059664;28;20496;-80
2023/08/06 06:56:32;;;;;;;13.57;12.47;;;17.90;1.00;;;;;;5059986;28;20446;-82
2023/08/06 06:58:59;;;;;;;14.57;13.33;;;18.00;1.00;;;;;;5057942;28;21010;-82
2023/08/06 07:01:26;;;;;;;13.60;12.60;;;18.00;1.00;;;;;;5057858;28;21005;-81
2023/08/06 07:03:54;;;;;;;13.33;12.23;;;18.10;1.00;;;;;;5064641;28;20471;-81
2023/08/06 07:06:21;;;;;;;12.73;11.70;;;18.10;1.00;;;;;;5064621;28;20477;-82
2023/08/06 07:08:48;;;;;;;12.73;11.67;;;18.00;1.00;;;;;;5064121;28;22788;-80
2023/08/06 07:11:15;;;;;;;13.60;12.47;;;18.00;1.00;;;;;;5064465;28;20463;-82
2023/08/06 07:13:42;;;;;;;12.20;11.20;;;18.10;1.00;;;;;;5066239;28;20494;-82
2023/08/06 07:16:09;;;;;;;12.80;11.60;;;18.10;1.00;;;;;;5065475;28;20540;-81
2023/08/06 07:18:36;;;;;;;13.57;12.37;;;18.20;1.00;;;;;;5065115;28;20516;-82
2023/08/06 07:21:04;;;;;;;12.40;11.40;;;18.30;1.00;;;;;;5065545;28;20460;-81
2023/08/06 07:23:31;;;;;;;11.80;10.90;;;18.40;1.00;;;;;;5066091;28;20473;-81
2023/08/06 07:25:59;;;;;;;12.63;11.63;;;18.40;1.00;;;;;;5064205;28;20460;-80
2023/08/06 07:28:26;;;;;;;12.80;11.70;;;18.40;1.00;;;;;;5065833;28;21175;-80
2023/08/06 07:30:53;;;;;;;11.73;10.80;;;18.40;1.00;;;;;;5061943;28;20551;-81
2023/08/06 07:33:20;;;;;;;12.13;11.17;;;18.50;1.00;;;;;;5063232;28;20481;-80
2023/08/06 07:35:47;;;;;;;12.00;10.90;;;18.50;1.00;;;;;;5059898;28;20464;-80
2023/08/06 07:38:16;;;;;;;12.80;11.80;;;18.50;1.00;;;;;;5060692;28;20479;-80
2023/08/06 07:40:43;;;;;;;11.70;10.70;;;18.50;1.00;;;;;;5065469;28;20458;-80
2023/08/06 07:43:10;;;;;;;11.67;10.77;;;18.50;1.00;;;;;;5064385;28;20457;-80
2023/08/06 07:45:37;;;;;;;12.17;11.03;;;18.50;1.00;;;;;;5062950;28;20826;-80
2023/08/06 07:48:05;;;;;;;13.10;11.90;;;18.40;1.00;;;;;;5062035;28;20505;-82
2023/08/06 07:50:32;;;;;;;12.03;10.93;;;18.40;1.00;;;;;;5064730;28;20482;-80
2023/08/06 07:52:59;;;;;;;11.30;10.50;;;18.40;1.00;;;;;;5064704;28;20462;-81
2023/08/06 07:55:28;;;;;;;13.27;11.90;;;18.40;1.00;;;;;;5065063;28;20466;-81
2023/08/06 07:57:55;;;;;;;11.60;10.60;;;18.40;1.00;;;;;;5065583;28;20537;-82
2023/08/06 08:00:22;;;;;;;12.10;11.00;;;18.40;1.00;;;;;;5066085;28;20524;-80
2023/08/06 08:02:49;;;;;;;11.00;10.10;;;18.40;1.00;;;;;;5065055;28;20466;-80
2023/08/06 08:05:16;;;;;;;10.67;9.87;;;18.40;1.00;;;;;;5064333;28;20457;-81
2023/08/06 08:07:44;;;;;;;10.90;9.90;;;18.50;1.00;;;;;;5065772;28;20608;-80
2023/08/06 08:10:11;;;;;;;11.20;10.30;;;18.40;1.00;;;;;;5067169;28;20490;-80
2023/08/06 08:12:39;;;;;;;12.70;11.70;;;18.50;1.00;;;;;;5064473;28;20535;-81
2023/08/06 08:15:07;;;;;;;12.00;10.90;;;18.40;1.00;;;;;;5062875;28;20460;-80
2023/08/06 08:17:34;;;;;;;12.30;11.23;;;18.40;1.00;;;;;;5061367;28;20505;-82
2023/08/06 08:20:01;;;;;;;12.10;11.17;;;18.40;1.00;;;;;;5062364;28;20957;-81
2023/08/06 08:22:28;;;;;;;13.10;12.10;;;18.40;1.00;;;;;;5064229;28;20544;-81
2023/08/06 08:24:55;;;;;;;13.07;11.97;;;18.40;1.00;;;;;;5064826;28;20551;-81
2023/08/06 08:27:22;;;;;;;12.87;11.77;;;18.40;1.00;;;;;;5064287;28;20999;-81
2023/08/06 08:29:50;;;;;;;12.97;11.97;;;18.40;1.00;;;;;;5063882;28;20476;-81
2023/08/06 08:32:17;;;;;;;13.33;12.33;;;18.40;1.00;;;;;;5065233;28;20916;-81
2023/08/06 08:34:45;;;;;;;12.63;11.63;;;18.50;1.00;;;;;;5063678;28;20854;-80
2023/08/06 08:37:12;;;;;;;15.70;14.47;;;18.50;1.00;;;;;;5063140;28;20477;-82
2023/08/06 08:39:38;;;;;;;14.20;12.80;;;18.40;1.00;;;;;;5064624;28;20989;-81
2023/08/06 08:42:07;;;;;;;13.20;12.20;;;18.40;1.00;;;;;;5063670;28;20855;-81
2023/08/06 08:44:36;;;;;;;12.00;11.10;;;18.40;1.00;;;;;;5063216;28;20482;-80
2023/08/06 08:47:05;;;;;;;11.93;11.03;;;18.50;1.00;;;;;;5063337;28;20471;-81
2023/08/06 08:49:32;;;;;;;12.43;11.43;;;18.50;1.00;;;;;;5062541;28;20454;-78
2023/08/06 08:52:00;;;;;;;12.60;11.50;;;18.50;1.00;;;;;;5067298;28;20461;-78
2023/08/06 08:54:28;;;;;;;13.23;12.03;;;18.50;1.00;;;;;;5068943;28;20450;-78
2023/08/06 08:56:56;;;;;;;10.93;10.03;;;18.60;1.00;;;;;;5070087;28;20925;-80
2023/08/06 08:59:23;;;;;;;12.20;11.20;;;18.60;1.00;;;;;;5070343;28;20455;-78
2023/08/06 09:01:51;;;;;;;14.27;12.90;;;18.70;1.00;;;;;;5069139;28;20530;-78
2023/08/06 09:04:20;;;;;;;12.43;11.43;;;18.80;1.00;;;;;;5066661;28;20958;-78
2023/08/06 09:06:50;;;;;;;13.37;12.37;;;18.80;1.00;;;;;;5060913;28;21370;-78
2023/08/06 09:09:24;;;;;;;13.60;12.40;;;18.80;1.00;;;;;;5067492;28;20482;-77
2023/08/06 09:11:52;;;;;;;14.50;13.30;;;18.90;1.00;;;;;;5066365;28;20442;-76
2023/08/06 09:14:19;;;;;;;13.77;12.57;;;19.00;1.00;;;;;;5060183;28;20465;-77
2023/08/06 09:16:46;;;;;;;13.47;12.40;;;19.10;1.00;;;;;;5066492;28;20521;-78
2023/08/06 09:19:15;;;;;;;14.47;13.27;;;19.10;1.00;;;;;;5066202;28;20541;-76
2023/08/06 09:21:44;;;;;;;14.83;13.63;;;19.00;1.00;;;;;;5068877;28;20541;-76
2023/08/06 09:24:12;;;;;;;16.43;15.13;;;19.00;1.00;;;;;;5068282;28;20475;-76
2023/08/06 09:26:42;;;;;;;16.00;14.50;;;19.10;1.00;;;;;;5068612;28;20961;-77
2023/08/06 09:29:11;;;;;;;16.73;15.20;;;19.20;1.00;;;;;;5071093;28;21240;-77
2023/08/06 09:31:42;;;;;;;15.97;14.60;;;19.30;1.00;;;;;;5070435;28;20547;-76
2023/08/06 09:34:13;;;;;;;16.03;14.70;;;19.20;1.00;;;;;;5066586;28;20535;-76
2023/08/06 09:36:47;;;;;;;16.53;15.23;;;19.00;1.00;;;;;;5069356;28;20535;-77
2023/08/06 09:39:15;;;;;;;17.93;16.40;;;19.00;1.00;;;;;;5067175;28;20468;-78
2023/08/06 09:41:42;;;;;;;15.50;14.20;;;18.80;1.00;;;;;;5072053;28;20472;-77
2023/08/06 09:44:18;;;;;;;15.90;14.57;;;18.80;1.00;;;;;;5071007;28;20460;-76
2023/08/06 09:46:49;;;;;;;13.63;12.53;;;18.80;1.00;;;;;;5070216;28;20437;-77
2023/08/06 09:49:16;;;;;;;12.20;11.17;;;18.80;1.00;;;;;;5067829;28;20469;-76
2023/08/06 09:51:45;;;;;;;10.57;9.70;;;18.70;1.00;;;;;;5066881;28;20977;-76
2023/08/06 09:54:14;;;;;;;13.77;12.67;;;18.60;1.00;;;;;;5066361;28;20535;-78
2023/08/06 09:56:43;;;;;;;12.03;10.77;;;18.70;1.00;;;;;;5067263;28;20497;-76
2023/08/06 09:59:10;;;;;;;13.30;12.30;;;18.80;1.00;;;;;;5069205;28;20461;-76
2023/08/06 10:01:38;;;;;;;13.73;12.63;;;18.90;1.00;;;;;;5064433;28;20465;-77
2023/08/06 10:04:08;;;;;;;10.93;9.93;;;19.00;1.00;;;;;;5064752;28;20459;-77
2023/08/06 10:06:36;;;;;;;11.77;10.67;;;19.20;1.00;;;;;;5063854;28;20479;-78
2023/08/06 10:09:05;;;;;;;11.30;10.30;;;19.20;1.00;;;;;;5065588;28;20469;-77
2023/08/06 10:11:32;;;;;;;9.80;9.00;;;19.30;1.00;;;;;;5064965;28;20485;-77
2023/08/06 10:14:04;;;;;;;9.67;8.87;;;19.30;1.00;;;;;;5068186;28;20425;-76
2023/08/06 10:16:32;;;;;;;9.23;8.53;;;19.30;1.00;;;;;;5066976;28;20446;-78
2023/08/06 10:19:01;;;;;;;9.17;8.47;;;19.30;1.00;;;;;;5065673;28;20459;-78
2023/08/06 10:21:30;;;;;;;9.50;8.80;;;19.30;1.00;;;;;;5067536;28;20522;-76
2023/08/06 10:23:57;;;;;;;10.50;9.70;;;19.30;1.00;;;;;;5058422;28;20447;-75
2023/08/06 10:26:28;;;;;;;9.50;8.60;;;19.20;1.00;;;;;;5062610;28;20465;-76
2023/08/06 10:28:55;;;;;;;9.37;8.67;;;19.20;1.00;;;;;;5068525;28;20460;-77
2023/08/06 10:31:56;;;;;;;8.17;7.57;;;19.30;1.00;;;;;;5063867;28;20463;-78
2023/08/06 10:34:23;;;;;;;9.27;8.50;;;19.30;1.00;;;;;;5063375;28;20471;-75
2023/08/06 10:36:50;;;;;;;8.53;7.83;;;19.30;1.00;;;;;;5065824;28;20479;-75
2023/08/06 10:39:17;;;;;;;8.77;8.17;;;19.40;1.00;;;;;;5064215;28;20464;-78
2023/08/06 10:41:45;;;;;;;8.37;7.73;;;19.40;1.00;;;;;;5061750;28;20884;-78
2023/08/06 10:44:13;;;;;;;7.53;7.03;;;19.40;1.00;;;;;;5067787;28;20478;-76
2023/08/06 10:46:40;;;;;;;9.30;8.50;;;19.40;1.00;;;;;;5063552;28;20533;-76
2023/08/06 10:49:07;;;;;;;7.80;7.10;;;19.30;1.00;;;;;;5063411;28;20912;-75
2023/08/06 10:51:34;;;;;;;7.23;6.63;;;19.30;1.00;;;;;;5067124;28;20499;-76
2023/08/06 10:54:01;;;;;;;7.33;6.73;;;19.30;1.00;;;;;;5066558;28;20453;-78
2023/08/06 10:56:28;;;;;;;7.37;6.77;;;19.40;1.00;;;;;;5065122;28;20468;-76
2023/08/06 10:58:59;;;;;;;6.60;5.93;;;19.50;1.00;;;;;;5063400;28;20880;-77
2023/08/06 11:01:30;;;;;;;10.03;9.23;;;19.40;1.00;;;;;;5066969;28;20458;-77
2023/08/06 11:04:02;;;;;;;6.90;6.30;;;19.60;1.00;;;;;;5063960;28;20550;-78
2023/08/06 11:06:30;;;;;;;7.93;7.33;;;19.70;1.00;;;;;;5064569;28;20474;-77
2023/08/06 11:08:58;;;;;;;6.80;6.30;;;19.80;1.00;;;;;;5064774;28;20498;-76
2023/08/06 11:11:29;;;;;;;7.33;6.70;;;19.90;1.00;;;;;;5064453;28;20460;-78
2023/08/06 11:13:57;;;;;;;6.43;5.93;;;19.90;1.00;;;;;;5064963;28;20555;-78
2023/08/06 11:16:25;;;;;;;6.53;6.03;;;20.00;1.00;;;;;;5066593;28;20626;-78
2023/08/06 11:18:52;;;;;;;6.00;5.53;;;20.10;1.00;;;;;;5061361;28;20487;-76
2023/08/06 11:21:21;;;;;;;6.67;6.17;;;20.10;1.00;;;;;;5063511;28;20972;-78
2023/08/06 11:23:48;;;;;;;6.33;5.83;;;20.10;1.00;;;;;;5064102;28;20526;-78
2023/08/06 11:26:20;;;;;;;7.10;6.40;;;20.20;1.00;;;;;;5066327;28;20477;-78
2023/08/06 11:28:47;;;;;;;6.90;6.40;;;20.10;1.00;;;;;;5063958;28;20565;-77
2023/08/06 11:31:21;;;;;;;7.40;6.80;;;20.10;1.00;;;;;;5064858;28;20541;-77
2023/08/06 11:33:48;;;;;;;7.33;6.80;;;20.10;1.00;;;;;;5063726;28;20561;-78
2023/08/06 11:36:15;;;;;;;8.03;7.33;;;20.10;1.00;;;;;;5065872;28;21222;-78
2023/08/06 11:38:42;;;;;;;8.20;7.60;;;20.20;1.00;;;;;;5068039;28;20434;-78
2023/08/06 11:41:09;;;;;;;7.93;7.33;;;20.30;1.00;;;;;;5067293;28;20891;-77
2023/08/06 11:43:36;;;;;;;9.03;8.23;;;20.30;1.00;;;;;;5065376;28;20896;-78
2023/08/06 11:46:03;;;;;;;9.07;8.37;;;20.50;1.00;;;;;;5068111;28;20556;-78
2023/08/06 11:48:32;;;;;;;8.47;7.77;;;20.50;1.00;;;;;;5064037;28;20520;-79
2023/08/06 11:50:59;;;;;;;8.40;7.70;;;20.50;1.00;;;;;;5066300;28;20428;-80
2023/08/06 11:53:29;;;;;;;8.03;7.40;;;20.50;1.00;;;;;;5063010;28;20931;-80
2023/08/06 11:55:57;;;;;;;9.67;8.97;;;20.50;1.00;;;;;;5065094;28;20479;-81
2023/08/06 11:58:24;;;;;;;8.80;8.10;;;20.50;1.00;;;;;;5059396;28;21782;-80
2023/08/06 12:00:51;;;;;;;9.90;9.10;;;20.60;1.00;;;;;;5065324;28;21380;-78
2023/08/06 12:03:20;;;;;;;10.10;9.30;;;20.60;1.00;;;;;;5064439;28;20551;-78
2023/08/06 12:05:49;;;;;;;12.20;11.13;;;20.60;1.00;;;;;;5066314;28;20474;-79
2023/08/06 12:08:15;;;;;;;10.27;9.47;;;20.60;1.00;;;;;;5063408;28;20536;-77
2023/08/06 12:10:42;;;;;;;10.47;9.63;;;20.70;1.00;;;;;;5068810;28;20906;-76
2023/08/06 12:13:11;;;;;;;9.63;8.83;;;20.70;1.00;;;;;;5068322;28;20514;-78
2023/08/06 12:15:38;;;;;;;8.80;8.10;;;20.70;1.00;;;;;;5066428;28;20448;-77
2023/08/06 12:18:06;;;;;;;26.33;24.50;;;20.60;1.00;;;;;;5063636;28;20499;-77
2023/08/06 12:20:33;;;;;;;12.33;11.43;;;20.70;1.00;;;;;;5065279;28;20469;-76
2023/08/06 12:23:01;;;;;;;9.57;8.83;;;20.60;1.00;;;;;;5065352;28;20599;-77
2023/08/06 12:25:27;;;;;;;9.27;8.57;;;20.70;1.00;;;;;;5068021;28;20632;-77
2023/08/06 12:27:54;;;;;;;9.93;9.17;;;20.70;1.00;;;;;;5070117;28;20633;-77
2023/08/06 12:30:21;;;;;;;9.83;8.93;;;20.70;1.00;;;;;;5067305;28;21479;-77
2023/08/06 12:32:51;;;;;;;10.13;9.23;;;20.60;1.00;;;;;;5043485;28;20504;-78
2023/08/06 12:35:19;;;;;;;10.03;9.13;;;20.60;1.00;;;;;;5063869;28;20502;-77
2023/08/06 12:37:46;;;;;;;10.90;9.90;;;20.60;1.00;;;;;;5065996;28;20457;-77
2023/08/06 12:40:15;;;;;;;8.70;8.00;;;20.50;1.00;;;;;;5068048;28;20551;-77
2023/08/06 12:42:42;;;;;;;9.70;8.90;;;20.50;1.00;;;;;;5066144;28;21279;-77
2023/08/06 12:45:09;;;;;;;10.53;9.73;;;20.40;1.00;;;;;;5064349;28;20467;-78
2023/08/06 12:47:36;;;;;;;10.23;9.43;;;20.40;1.00;;;;;;5054204;28;20464;-77